sensor_id;sensor_type;location;lat;lon;timestamp;pressure;altitude;pressure_sealevel;temperature;humidity
4705;BME280;2366;51.332;6.610;2023-07-29T00:01:31;100604.69;;;22.87;76.68
4705;BME280;2366;51.332;6.610;2023-07-29T00:03:57;100600.50;;;22.85;76.57
4705;BME280;2366;51.332;6.610;2023-07-29T00:06:23;100595.25;;;22.83;76.56
4705;BME280;2366;51.332;6.610;2023-07-29T00:08:49;100587.66;;;22.87;76.68
4705;BME280;2366;51.332;6.610;2023-07-29T00:11:14;100585.44;;;22.90;76.71
4705;BME280;2366;51.332;6.610;2023-07-29T00:13:40;100581.72;;;22.91;76.94
4705;BME280;2366;51.332;6.610;2023-07-29T00:16:05;100574.94;;;22.95;76.75
4705;BME280;2366;51.332;6.610;2023-07-29T00:18:31;100569.16;;;22.98;76.63
4705;BME280;2366;51.332;6.610;2023-07-29T00:20:57;100577.13;;;23.00;76.66
4705;BME280;2366;51.332;6.610;2023-07-29T00:23:22;100574.25;;;23.02;76.34
4705;BME280;2366;51.332;6.610;2023-07-29T00:25:48;100570.88;;;23.00;76.53
4705;BME280;2366;51.332;6.610;2023-07-29T00:28:13;100572.72;;;22.99;76.59
4705;BME280;2366;51.332;6.610;2023-07-29T00:30:39;100578.84;;;23.01;76.51
4705;BME280;2366;51.332;6.610;2023-07-29T00:33:04;100575.09;;;23.02;76.71
4705;BME280;2366;51.332;6.610;2023-07-29T00:35:29;100575.09;;;23.02;76.85
4705;BME280;2366;51.332;6.610;2023-07-29T00:37:55;100572.22;;;23.04;77.06
4705;BME280;2366;51.332;6.610;2023-07-29T00:40:21;100571.84;;;23.07;76.98
4705;BME280;2366;51.332;6.610;2023-07-29T00:42:48;100569.66;;;23.10;76.90
4705;BME280;2366;51.332;6.610;2023-07-29T00:45:13;100570.31;;;23.12;76.61
4705;BME280;2366;51.332;6.610;2023-07-29T00:47:39;100575.16;;;23.17;76.85
4705;BME280;2366;51.332;6.610;2023-07-29T00:50:05;100578.00;;;23.24;76.78
4705;BME280;2366;51.332;6.610;2023-07-29T00:52:31;100568.84;;;23.25;77.03
4705;BME280;2366;51.332;6.610;2023-07-29T00:54:57;100572.22;;;23.27;76.69
4705;BME280;2366;51.332;6.610;2023-07-29T00:57:23;100565.63;;;23.29;76.61
4705;BME280;2366;51.332;6.610;2023-07-29T00:59:50;100566.09;;;23.33;76.73
4705;BME280;2366;51.332;6.610;2023-07-29T01:02:16;100564.88;;;23.35;76.72
4705;BME280;2366;51.332;6.610;2023-07-29T01:04:42;100559.13;;;23.38;76.57
4705;BME280;2366;51.332;6.610;2023-07-29T01:07:30;100559.41;;;23.44;76.85
4705;BME280;2366;51.332;6.610;2023-07-29T01:10:02;100555.69;;;23.45;76.34
4705;BME280;2366;51.332;6.610;2023-07-29T01:12:49;100553.00;;;23.45;76.31
4705;BME280;2366;51.332;6.610;2023-07-29T01:15:32;100553.72;;;23.38;76.00
4705;BME280;2366;51.332;6.610;2023-07-29T01:18:05;100553.22;;;23.35;76.28
4705;BME280;2366;51.332;6.610;2023-07-29T01:20:33;100541.56;;;23.34;75.98
4705;BME280;2366;51.332;6.610;2023-07-29T01:22:59;100540.91;;;23.32;76.26
4705;BME280;2366;51.332;6.610;2023-07-29T01:25:24;100533.47;;;23.34;76.37
4705;BME280;2366;51.332;6.610;2023-07-29T01:27:52;100541.19;;;23.37;76.34
4705;BME280;2366;51.332;6.610;2023-07-29T01:30:19;100534.28;;;23.35;76.18
4705;BME280;2366;51.332;6.610;2023-07-29T01:32:53;100541.19;;;23.37;76.24
4705;BME280;2366;51.332;6.610;2023-07-29T01:35:31;100538.31;;;23.39;76.40
4705;BME280;2366;51.332;6.610;2023-07-29T01:38:38;100548.59;;;23.44;76.25
4705;BME280;2366;51.332;6.610;2023-07-29T01:41:04;100555.69;;;23.45;76.12
4705;BME280;2366;51.332;6.610;2023-07-29T01:43:31;100552.78;;;23.46;76.07
4705;BME280;2366;51.332;6.610;2023-07-29T01:45:57;100548.91;;;23.49;76.39
4705;BME280;2366;51.332;6.610;2023-07-29T01:48:23;100539.75;;;23.50;76.15
4705;BME280;2366;51.332;6.610;2023-07-29T01:50:48;100527.94;;;23.51;76.05
4705;BME280;2366;51.332;6.610;2023-07-29T01:53:14;100520.66;;;23.51;76.09
4705;BME280;2366;51.332;6.610;2023-07-29T01:55:40;100523.34;;;23.51;75.90
4705;BME280;2366;51.332;6.610;2023-07-29T01:58:05;100525.56;;;23.48;76.10
4705;BME280;2366;51.332;6.610;2023-07-29T02:00:31;100522.59;;;23.43;76.02
4705;BME280;2366;51.332;6.610;2023-07-29T02:02:56;100515.84;;;23.38;75.97
4705;BME280;2366;51.332;6.610;2023-07-29T02:05:21;100517.91;;;23.36;76.14
4705;BME280;2366;51.332;6.610;2023-07-29T02:07:47;100518.28;;;23.33;76.26
4705;BME280;2366;51.332;6.610;2023-07-29T02:10:12;100527.56;;;23.31;76.28
4705;BME280;2366;51.332;6.610;2023-07-29T02:12:38;100525.06;;;23.29;76.56
4705;BME280;2366;51.332;6.610;2023-07-29T02:15:04;100529.44;;;23.30;76.56
4705;BME280;2366;51.332;6.610;2023-07-29T02:17:30;100528.59;;;23.30;76.70
4705;BME280;2366;51.332;6.610;2023-07-29T02:19:55;100526.06;;;23.28;76.81
4705;BME280;2366;51.332;6.610;2023-07-29T02:22:21;100537.06;;;23.27;76.91
4705;BME280;2366;51.332;6.610;2023-07-29T02:24:46;100536.88;;;23.28;77.15
4705;BME280;2366;51.332;6.610;2023-07-29T02:27:12;100531.66;;;23.27;77.04
4705;BME280;2366;51.332;6.610;2023-07-29T02:29:37;100538.94;;;23.26;76.94
4705;BME280;2366;51.332;6.610;2023-07-29T02:32:03;100531.84;;;23.25;77.07
4705;BME280;2366;51.332;6.610;2023-07-29T02:34:29;100537.25;;;23.25;77.16
4705;BME280;2366;51.332;6.610;2023-07-29T02:36:54;100526.78;;;23.22;77.33
4705;BME280;2366;51.332;6.610;2023-07-29T02:39:19;100519.72;;;23.21;77.17
4705;BME280;2366;51.332;6.610;2023-07-29T02:41:45;100522.97;;;23.16;77.47
4705;BME280;2366;51.332;6.610;2023-07-29T02:44:10;100524.28;;;23.21;77.70
4705;BME280;2366;51.332;6.610;2023-07-29T02:46:35;100533.91;;;23.23;77.67
4705;BME280;2366;51.332;6.610;2023-07-29T02:49:02;100535.22;;;23.27;77.77
4705;BME280;2366;51.332;6.610;2023-07-29T02:51:28;100530.66;;;23.28;77.48
4705;BME280;2366;51.332;6.610;2023-07-29T02:53:54;100544.00;;;23.29;77.52
4705;BME280;2366;51.332;6.610;2023-07-29T02:56:19;100537.94;;;23.27;77.78
4705;BME280;2366;51.332;6.610;2023-07-29T02:58:44;100535.03;;;23.29;77.44
4705;BME280;2366;51.332;6.610;2023-07-29T03:01:10;100531.19;;;23.23;77.32
4705;BME280;2366;51.332;6.610;2023-07-29T03:03:35;100534.25;;;23.20;77.51
4705;BME280;2366;51.332;6.610;2023-07-29T03:06:06;100533.91;;;23.23;77.46
4705;BME280;2366;51.332;6.610;2023-07-29T03:08:32;100533.06;;;23.23;77.38
4705;BME280;2366;51.332;6.610;2023-07-29T03:10:58;100530.53;;;23.21;77.55
4705;BME280;2366;51.332;6.610;2023-07-29T03:13:23;100512.16;;;23.16;77.45
4705;BME280;2366;51.332;6.610;2023-07-29T03:15:49;100508.31;;;23.11;77.56
4705;BME280;2366;51.332;6.610;2023-07-29T03:18:15;100502.56;;;23.14;77.77
4705;BME280;2366;51.332;6.610;2023-07-29T03:20:41;100508.59;;;23.16;77.96
4705;BME280;2366;51.332;6.610;2023-07-29T03:23:06;100513.81;;;23.17;77.47
4705;BME280;2366;51.332;6.610;2023-07-29T03:25:31;100523.81;;;23.17;77.96
4705;BME280;2366;51.332;6.610;2023-07-29T03:27:57;100520.06;;;23.18;77.70
4705;BME280;2366;51.332;6.610;2023-07-29T03:30:22;100522.25;;;23.23;77.75
4705;BME280;2366;51.332;6.610;2023-07-29T03:32:48;100519.06;;;23.19;77.56
4705;BME280;2366;51.332;6.610;2023-07-29T03:35:14;100523.44;;;23.20;77.73
4705;BME280;2366;51.332;6.610;2023-07-29T03:37:40;100518.03;;;23.20;77.90
4705;BME280;2366;51.332;6.610;2023-07-29T03:40:06;100503.50;;;23.21;77.84
4705;BME280;2366;51.332;6.610;2023-07-29T03:42:32;100511.78;;;23.20;77.70
4705;BME280;2366;51.332;6.610;2023-07-29T03:44:57;100517.34;;;23.18;77.79
4705;BME280;2366;51.332;6.610;2023-07-29T03:47:23;100514.66;;;23.18;77.91
4705;BME280;2366;51.332;6.610;2023-07-29T03:49:48;100517.44;;;23.10;77.89
4705;BME280;2366;51.332;6.610;2023-07-29T03:52:14;100523.03;;;23.08;77.21
4705;BME280;2366;51.332;6.610;2023-07-29T03:54:39;100525.44;;;23.03;77.54
4705;BME280;2366;51.332;6.610;2023-07-29T03:57:05;100522.22;;;23.00;77.58
4705;BME280;2366;51.332;6.610;2023-07-29T03:59:30;100509.59;;;22.92;77.60
4705;BME280;2366;51.332;6.610;2023-07-29T04:01:56;100504.25;;;22.84;77.24
4705;BME280;2366;51.332;6.610;2023-07-29T04:04:21;100501.44;;;22.77;77.38
4705;BME280;2366;51.332;6.610;2023-07-29T04:06:46;100511.75;;;22.73;77.38
4705;BME280;2366;51.332;6.610;2023-07-29T04:09:12;100509.38;;;22.70;77.48
4705;BME280;2366;51.332;6.610;2023-07-29T04:11:38;100518.34;;;22.71;77.42
4705;BME280;2366;51.332;6.610;2023-07-29T04:14:03;100524.09;;;22.68;77.15
4705;BME280;2366;51.332;6.610;2023-07-29T04:16:28;100520.56;;;22.67;77.35
4705;BME280;2366;51.332;6.610;2023-07-29T04:18:54;100520.72;;;22.66;77.44
4705;BME280;2366;51.332;6.610;2023-07-29T04:21:20;100527.63;;;22.68;77.63
4705;BME280;2366;51.332;6.610;2023-07-29T04:23:45;100539.47;;;22.67;77.65
4705;BME280;2366;51.332;6.610;2023-07-29T04:26:10;100547.41;;;22.69;77.51
4705;BME280;2366;51.332;6.610;2023-07-29T04:28:36;100563.59;;;22.69;77.28
4705;BME280;2366;51.332;6.610;2023-07-29T04:31:01;100563.25;;;22.72;77.69
4705;BME280;2366;51.332;6.610;2023-07-29T04:33:29;100567.28;;;22.76;77.51
4705;BME280;2366;51.332;6.610;2023-07-29T04:35:54;100568.81;;;22.70;77.21
4705;BME280;2366;51.332;6.610;2023-07-29T04:38:20;100570.72;;;22.62;77.10
4705;BME280;2366;51.332;6.610;2023-07-29T04:40:45;100570.78;;;22.53;76.88
4705;BME280;2366;51.332;6.610;2023-07-29T04:43:11;100567.75;;;22.48;76.78
4705;BME280;2366;51.332;6.610;2023-07-29T04:45:36;100555.28;;;22.47;76.94
4705;BME280;2366;51.332;6.610;2023-07-29T04:48:07;100542.97;;;22.45;76.91
4705;BME280;2366;51.332;6.610;2023-07-29T04:50:32;100544.47;;;22.47;76.45
4705;BME280;2366;51.332;6.610;2023-07-29T04:52:57;100535.84;;;22.52;76.67
4705;BME280;2366;51.332;6.610;2023-07-29T04:55:23;100536.34;;;22.55;76.35
4705;BME280;2366;51.332;6.610;2023-07-29T04:57:48;100528.91;;;22.58;76.09
4705;BME280;2366;51.332;6.610;2023-07-29T05:00:13;100540.31;;;22.68;76.28
4705;BME280;2366;51.332;6.610;2023-07-29T05:02:39;100530.50;;;22.75;76.07
4705;BME280;2366;51.332;6.610;2023-07-29T05:05:04;100522.69;;;22.80;75.89
4705;BME280;2366;51.332;6.610;2023-07-29T05:07:30;100532.78;;;22.86;75.59
4705;BME280;2366;51.332;6.610;2023-07-29T05:09:55;100530.25;;;22.85;75.20
4705;BME280;2366;51.332;6.610;2023-07-29T05:12:20;100542.22;;;22.90;75.00
4705;BME280;2366;51.332;6.610;2023-07-29T05:14:46;100547.41;;;22.92;75.04
4705;BME280;2366;51.332;6.610;2023-07-29T05:17:11;100561.59;;;22.94;74.70
4705;BME280;2366;51.332;6.610;2023-07-29T05:19:37;100575.66;;;22.89;74.24
4705;BME280;2366;51.332;6.610;2023-07-29T05:22:02;100570.78;;;22.85;74.27
4705;BME280;2366;51.332;6.610;2023-07-29T05:24:27;100572.09;;;22.89;74.08
4705;BME280;2366;51.332;6.610;2023-07-29T05:26:53;100587.16;;;22.83;73.67
4705;BME280;2366;51.332;6.610;2023-07-29T05:29:18;100596.28;;;22.82;73.90
4705;BME280;2366;51.332;6.610;2023-07-29T05:31:44;100595.09;;;22.85;73.93
4705;BME280;2366;51.332;6.610;2023-07-29T05:34:09;100590.66;;;22.92;73.73
4705;BME280;2366;51.332;6.610;2023-07-29T05:36:34;100576.97;;;22.93;73.09
4705;BME280;2366;51.332;6.610;2023-07-29T05:39:00;100579.69;;;22.93;73.54
4705;BME280;2366;51.332;6.610;2023-07-29T05:41:25;100576.28;;;23.00;73.24
4705;BME280;2366;51.332;6.610;2023-07-29T05:43:54;100578.84;;;23.01;72.94
4705;BME280;2366;51.332;6.610;2023-07-29T05:46:19;100591.47;;;23.01;73.02
4705;BME280;2366;51.332;6.610;2023-07-29T05:48:45;100604.81;;;23.02;72.96
4705;BME280;2366;51.332;6.610;2023-07-29T05:51:10;100599.59;;;23.01;72.72
4705;BME280;2366;51.332;6.610;2023-07-29T05:53:35;100593.69;;;22.97;72.72
4705;BME280;2366;51.332;6.610;2023-07-29T05:56:01;100595.88;;;23.02;72.63
4705;BME280;2366;51.332;6.610;2023-07-29T05:58:26;100595.88;;;23.02;72.62
4705;BME280;2366;51.332;6.610;2023-07-29T06:00:51;100590.97;;;23.05;72.25
4705;BME280;2366;51.332;6.610;2023-07-29T06:03:17;100604.63;;;23.12;71.98
4705;BME280;2366;51.332;6.610;2023-07-29T06:05:42;100621.09;;;23.25;72.15
4705;BME280;2366;51.332;6.610;2023-07-29T06:08:07;100633.28;;;23.44;72.04
4705;BME280;2366;51.332;6.610;2023-07-29T06:10:34;100625.03;;;23.61;71.18
4705;BME280;2366;51.332;6.610;2023-07-29T06:12:59;100629.44;;;23.62;70.00
4705;BME280;2366;51.332;6.610;2023-07-29T06:15:25;100630.81;;;23.57;69.70
4705;BME280;2366;51.332;6.610;2023-07-29T06:17:50;100620.25;;;23.48;68.59
4705;BME280;2366;51.332;6.610;2023-07-29T06:20:15;100625.81;;;23.46;69.16
4705;BME280;2366;51.332;6.610;2023-07-29T06:22:41;100628.34;;;23.48;68.58
4705;BME280;2366;51.332;6.610;2023-07-29T06:25:08;100630.94;;;23.64;68.72
4705;BME280;2366;51.332;6.610;2023-07-29T06:27:33;100633.97;;;24.07;67.81
4705;BME280;2366;51.332;6.610;2023-07-29T06:29:58;100637.91;;;24.19;66.61
4705;BME280;2366;51.332;6.610;2023-07-29T06:32:24;100641.94;;;24.38;66.07
4705;BME280;2366;51.332;6.610;2023-07-29T06:34:49;100638.25;;;25.20;64.80
4705;BME280;2366;51.332;6.610;2023-07-29T06:37:17;100637.47;;;26.54;61.98
4705;BME280;2366;51.332;6.610;2023-07-29T06:39:42;100619.19;;;27.18;56.87
4705;BME280;2366;51.332;6.610;2023-07-29T06:42:07;100620.97;;;26.97;55.28
4705;BME280;2366;51.332;6.610;2023-07-29T06:44:33;100619.16;;;26.63;54.34
4705;BME280;2366;51.332;6.610;2023-07-29T06:46:58;100632.41;;;26.10;57.28
4705;BME280;2366;51.332;6.610;2023-07-29T06:49:23;100630.25;;;26.27;58.23
4705;BME280;2366;51.332;6.610;2023-07-29T06:51:49;100631.44;;;26.94;54.90
4705;BME280;2366;51.332;6.610;2023-07-29T06:54:16;100628.59;;;27.15;56.21
4705;BME280;2366;51.332;6.610;2023-07-29T06:56:41;100639.75;;;28.40;53.58
4705;BME280;2366;51.332;6.610;2023-07-29T06:59:06;100633.59;;;29.30;48.92
4705;BME280;2366;51.332;6.610;2023-07-29T07:01:32;100636.22;;;29.68;47.70
4705;BME280;2366;51.332;6.610;2023-07-29T07:03:57;100627.94;;;29.88;46.80
4705;BME280;2366;51.332;6.610;2023-07-29T07:06:23;100634.59;;;29.93;47.58
4705;BME280;2366;51.332;6.610;2023-07-29T07:08:50;100638.25;;;29.86;47.20
4705;BME280;2366;51.332;6.610;2023-07-29T07:11:15;100631.56;;;30.81;45.31
4705;BME280;2366;51.332;6.610;2023-07-29T07:13:41;100636.38;;;30.67;40.61
4705;BME280;2366;51.332;6.610;2023-07-29T07:16:06;100642.53;;;30.44;44.00
4705;BME280;2366;51.332;6.610;2023-07-29T07:18:31;100628.34;;;30.54;43.24
4705;BME280;2366;51.332;6.610;2023-07-29T07:20:57;100628.84;;;31.00;42.36
4705;BME280;2366;51.332;6.610;2023-07-29T07:23:22;100628.84;;;31.60;41.53
4705;BME280;2366;51.332;6.610;2023-07-29T07:25:48;100626.34;;;31.59;41.46
4705;BME280;2366;51.332;6.610;2023-07-29T07:28:13;100634.97;;;31.98;41.14
4705;BME280;2366;51.332;6.610;2023-07-29T07:30:42;100627.47;;;31.09;41.17
4705;BME280;2366;51.332;6.610;2023-07-29T07:33:08;100629.94;;;30.43;43.00
4705;BME280;2366;51.332;6.610;2023-07-29T07:35:33;100632.72;;;30.55;41.90
4705;BME280;2366;51.332;6.610;2023-07-29T07:37:59;100633.03;;;30.65;43.72
4705;BME280;2366;51.332;6.610;2023-07-29T07:40:27;100627.88;;;30.57;42.87
4705;BME280;2366;51.332;6.610;2023-07-29T07:42:52;100630.91;;;31.04;43.10
4705;BME280;2366;51.332;6.610;2023-07-29T07:45:17;100636.91;;;30.58;42.58
4705;BME280;2366;51.332;6.610;2023-07-29T07:47:43;100631.69;;;30.56;42.83
4705;BME280;2366;51.332;6.610;2023-07-29T07:50:09;100637.97;;;30.57;43.00
4705;BME280;2366;51.332;6.610;2023-07-29T07:52:34;100632.84;;;30.23;43.53
4705;BME280;2366;51.332;6.610;2023-07-29T07:54:59;100635.66;;;29.92;42.82
4705;BME280;2366;51.332;6.610;2023-07-29T07:57:25;100634.91;;;29.84;43.23
4705;BME280;2366;51.332;6.610;2023-07-29T07:59:50;100634.09;;;29.77;44.97
4705;BME280;2366;51.332;6.610;2023-07-29T08:02:17;100639.34;;;30.47;43.01
4705;BME280;2366;51.332;6.610;2023-07-29T08:04:43;100635.13;;;30.26;42.27
4705;BME280;2366;51.332;6.610;2023-07-29T08:07:08;100630.78;;;30.62;41.71
4705;BME280;2366;51.332;6.610;2023-07-29T08:09:34;100633.19;;;30.52;43.44
4705;BME280;2366;51.332;6.610;2023-07-29T08:11:59;100636.78;;;30.34;42.17
4705;BME280;2366;51.332;6.610;2023-07-29T08:14:25;100633.56;;;30.74;41.86
4705;BME280;2366;51.332;6.610;2023-07-29T08:16:51;100627.84;;;31.13;40.77
4705;BME280;2366;51.332;6.610;2023-07-29T08:19:17;100630.16;;;31.27;40.70
4705;BME280;2366;51.332;6.610;2023-07-29T08:21:42;100632.66;;;31.29;40.79
4705;BME280;2366;51.332;6.610;2023-07-29T08:24:07;100635.25;;;31.66;38.53
4705;BME280;2366;51.332;6.610;2023-07-29T08:26:33;100630.50;;;31.31;41.27
4705;BME280;2366;51.332;6.610;2023-07-29T08:28:58;100628.94;;;30.93;40.19
4705;BME280;2366;51.332;6.610;2023-07-29T08:31:24;100622.63;;;30.56;41.30
4705;BME280;2366;51.332;6.610;2023-07-29T08:33:49;100613.56;;;31.10;41.12
4705;BME280;2366;51.332;6.610;2023-07-29T08:36:15;100613.25;;;31.00;41.88
4705;BME280;2366;51.332;6.610;2023-07-29T08:38:40;100611.00;;;31.39;40.46
4705;BME280;2366;51.332;6.610;2023-07-29T08:41:25;100622.31;;;31.97;39.65
4705;BME280;2366;51.332;6.610;2023-07-29T08:46:32;100628.03;;;31.29;40.57
4705;BME280;2366;51.332;6.610;2023-07-29T08:48:59;100626.06;;;31.18;40.83
4705;BME280;2366;51.332;6.610;2023-07-29T08:51:27;100620.75;;;31.65;40.59
4705;BME280;2366;51.332;6.610;2023-07-29T08:53:53;100628.34;;;30.91;40.54
4705;BME280;2366;51.332;6.610;2023-07-29T08:56:19;100632.88;;;30.42;42.12
4705;BME280;2366;51.332;6.610;2023-07-29T08:58:45;100635.63;;;30.60;42.45
4705;BME280;2366;51.332;6.610;2023-07-29T09:01:10;100631.91;;;29.86;42.69
4705;BME280;2366;51.332;6.610;2023-07-29T09:03:36;100636.22;;;29.75;43.63
4705;BME280;2366;51.332;6.610;2023-07-29T09:06:02;100648.28;;;29.61;43.71
4705;BME280;2366;51.332;6.610;2023-07-29T09:08:28;100639.28;;;29.22;44.40
4705;BME280;2366;51.332;6.610;2023-07-29T09:10:54;100648.25;;;28.84;45.58
4705;BME280;2366;51.332;6.610;2023-07-29T09:13:21;100653.34;;;28.60;45.83
4705;BME280;2366;51.332;6.610;2023-07-29T09:15:46;100646.44;;;28.64;46.33
4705;BME280;2366;51.332;6.610;2023-07-29T09:18:16;100654.25;;;28.54;46.48
4705;BME280;2366;51.332;6.610;2023-07-29T09:20:42;100651.50;;;28.61;45.32
4705;BME280;2366;51.332;6.610;2023-07-29T09:23:09;100655.06;;;28.41;46.48
4705;BME280;2366;51.332;6.610;2023-07-29T09:25:39;100654.88;;;28.23;46.45
4705;BME280;2366;51.332;6.610;2023-07-29T09:28:14;100654.06;;;28.16;47.00
4705;BME280;2366;51.332;6.610;2023-07-29T09:30:41;100649.66;;;27.95;47.84
4705;BME280;2366;51.332;6.610;2023-07-29T09:33:07;100648.72;;;27.34;47.44
4705;BME280;2366;51.332;6.610;2023-07-29T09:35:35;100646.69;;;27.56;48.29
4705;BME280;2366;51.332;6.610;2023-07-29T09:38:01;100655.31;;;27.86;47.94
4705;BME280;2366;51.332;6.610;2023-07-29T09:40:27;100652.81;;;27.98;47.38
4705;BME280;2366;51.332;6.610;2023-07-29T09:42:54;100640.81;;;28.39;46.85
4705;BME280;2366;51.332;6.610;2023-07-29T09:45:29;100642.22;;;29.20;45.51
4705;BME280;2366;51.332;6.610;2023-07-29T09:47:56;100644.72;;;30.36;44.43
4705;BME280;2366;51.332;6.610;2023-07-29T09:50:26;100634.53;;;31.47;41.98
4705;BME280;2366;51.332;6.610;2023-07-29T09:52:53;100625.25;;;31.60;42.53
4705;BME280;2366;51.332;6.610;2023-07-29T09:55:21;100626.03;;;32.26;40.30
4705;BME280;2366;51.332;6.610;2023-07-29T09:57:47;100625.91;;;32.32;40.03
4705;BME280;2366;51.332;6.610;2023-07-29T10:00:12;100622.19;;;32.62;37.99
4705;BME280;2366;51.332;6.610;2023-07-29T10:02:40;100632.72;;;32.53;37.41
4705;BME280;2366;51.332;6.610;2023-07-29T10:05:07;100634.59;;;31.94;39.66
4705;BME280;2366;51.332;6.610;2023-07-29T10:07:37;100624.97;;;32.39;39.49
4705;BME280;2366;51.332;6.610;2023-07-29T10:10:07;100627.34;;;32.47;38.82
4705;BME280;2366;51.332;6.610;2023-07-29T10:12:34;100626.22;;;31.77;39.01
4705;BME280;2366;51.332;6.610;2023-07-29T10:15:03;100618.84;;;30.94;40.47
4705;BME280;2366;51.332;6.610;2023-07-29T10:17:30;100625.28;;;30.00;42.92
4705;BME280;2366;51.332;6.610;2023-07-29T10:19:56;100628.69;;;29.39;42.15
4705;BME280;2366;51.332;6.610;2023-07-29T10:22:28;100633.13;;;29.33;43.73
4705;BME280;2366;51.332;6.610;2023-07-29T10:24:57;100633.66;;;29.48;43.25
4705;BME280;2366;51.332;6.610;2023-07-29T10:27:24;100637.84;;;29.51;43.49
4705;BME280;2366;51.332;6.610;2023-07-29T10:29:51;100631.94;;;29.54;43.87
4705;BME280;2366;51.332;6.610;2023-07-29T10:32:23;100639.56;;;29.45;43.13
4705;BME280;2366;51.332;6.610;2023-07-29T10:34:50;100625.78;;;29.90;43.38
4705;BME280;2366;51.332;6.610;2023-07-29T10:37:15;100631.59;;;30.01;43.33
4705;BME280;2366;51.332;6.610;2023-07-29T10:39:52;100625.63;;;29.54;43.58
4705;BME280;2366;51.332;6.610;2023-07-29T10:42:17;100622.00;;;29.92;43.31
4705;BME280;2366;51.332;6.610;2023-07-29T10:47:15;100623.63;;;30.61;43.00
4705;BME280;2366;51.332;6.610;2023-07-29T10:49:41;100616.94;;;30.76;41.68
4705;BME280;2366;51.332;6.610;2023-07-29T10:52:07;100617.47;;;30.29;41.76
4705;BME280;2366;51.332;6.610;2023-07-29T10:54:46;100616.75;;;29.65;42.77
4705;BME280;2366;51.332;6.610;2023-07-29T10:57:29;100629.13;;;29.36;42.91
4705;BME280;2366;51.332;6.610;2023-07-29T10:59:56;100631.28;;;28.75;44.32
4705;BME280;2366;51.332;6.610;2023-07-29T11:02:32;100626.06;;;28.74;44.68
4705;BME280;2366;51.332;6.610;2023-07-29T11:04:58;100624.22;;;28.67;45.02
4705;BME280;2366;51.332;6.610;2023-07-29T11:07:26;100626.53;;;28.57;44.81
4705;BME280;2366;51.332;6.610;2023-07-29T11:10:03;100633.47;;;28.53;45.15
4705;BME280;2366;51.332;6.610;2023-07-29T11:12:46;100638.31;;;28.38;45.20
4705;BME280;2366;51.332;6.610;2023-07-29T11:15:23;100638.13;;;28.33;45.33
4705;BME280;2366;51.332;6.610;2023-07-29T11:17:55;100636.69;;;27.90;45.55
4705;BME280;2366;51.332;6.610;2023-07-29T11:20:31;100624.53;;;27.93;45.90
4705;BME280;2366;51.332;6.610;2023-07-29T11:22:59;100619.06;;;28.91;44.53
4705;BME280;2366;51.332;6.610;2023-07-29T11:25:27;100634.56;;;29.36;43.33
4705;BME280;2366;51.332;6.610;2023-07-29T11:27:55;100634.63;;;29.29;42.71
4705;BME280;2366;51.332;6.610;2023-07-29T11:30:21;100624.91;;;29.40;42.78
4705;BME280;2366;51.332;6.610;2023-07-29T11:32:55;100613.88;;;29.53;42.20
4705;BME280;2366;51.332;6.610;2023-07-29T11:35:21;100614.72;;;29.54;42.97
4705;BME280;2366;51.332;6.610;2023-07-29T11:37:50;100608.75;;;29.70;40.82
4705;BME280;2366;51.332;6.610;2023-07-29T11:40:23;100609.72;;;30.01;41.49
4705;BME280;2366;51.332;6.610;2023-07-29T11:42:49;100604.72;;;29.98;42.40
4705;BME280;2366;51.332;6.610;2023-07-29T11:45:16;100616.75;;;29.65;41.78
4705;BME280;2366;51.332;6.610;2023-07-29T11:47:42;100610.22;;;29.34;42.50
4705;BME280;2366;51.332;6.610;2023-07-29T11:50:09;100601.69;;;29.56;41.87
4705;BME280;2366;51.332;6.610;2023-07-29T11:52:39;100601.50;;;29.51;42.32
4705;BME280;2366;51.332;6.610;2023-07-29T11:55:06;100598.78;;;29.51;41.92
4705;BME280;2366;51.332;6.610;2023-07-29T11:57:35;100602.59;;;29.43;41.98
4705;BME280;2366;51.332;6.610;2023-07-29T12:00:05;100587.72;;;29.45;42.19
4705;BME280;2366;51.332;6.610;2023-07-29T12:02:32;100594.63;;;29.98;41.47
4705;BME280;2366;51.332;6.610;2023-07-29T12:04:58;100603.16;;;30.27;41.04
4705;BME280;2366;51.332;6.610;2023-07-29T12:07:24;100600.16;;;29.92;41.29
4705;BME280;2366;51.332;6.610;2023-07-29T12:09:50;100605.81;;;29.65;42.26
4705;BME280;2366;51.332;6.610;2023-07-29T12:12:15;100604.81;;;29.27;42.66
4705;BME280;2366;51.332;6.610;2023-07-29T12:14:44;100606.53;;;29.22;44.28
4705;BME280;2366;51.332;6.610;2023-07-29T12:17:10;100600.00;;;29.55;43.81
4705;BME280;2366;51.332;6.610;2023-07-29T12:19:37;100598.47;;;29.90;43.02
4705;BME280;2366;51.332;6.610;2023-07-29T12:22:04;100586.47;;;30.17;43.16
4705;BME280;2366;51.332;6.610;2023-07-29T12:24:31;100582.03;;;30.41;42.45
4705;BME280;2366;51.332;6.610;2023-07-29T12:26:57;100588.97;;;30.55;41.82
4705;BME280;2366;51.332;6.610;2023-07-29T12:29:23;100582.75;;;30.48;40.78
4705;BME280;2366;51.332;6.610;2023-07-29T12:31:57;100575.69;;;30.22;42.02
4705;BME280;2366;51.332;6.610;2023-07-29T12:34:26;100578.06;;;30.37;41.54
4705;BME280;2366;51.332;6.610;2023-07-29T12:36:51;100579.44;;;30.46;41.80
4705;BME280;2366;51.332;6.610;2023-07-29T12:39:18;100573.50;;;30.49;41.58
4705;BME280;2366;51.332;6.610;2023-07-29T12:41:44;100578.81;;;30.44;41.79
4705;BME280;2366;51.332;6.610;2023-07-29T12:44:10;100566.53;;;30.83;40.87
4705;BME280;2366;51.332;6.610;2023-07-29T12:46:35;100565.75;;;31.25;39.68
4705;BME280;2366;51.332;6.610;2023-07-29T12:49:01;100556.97;;;31.35;40.31
4705;BME280;2366;51.332;6.610;2023-07-29T12:51:26;100557.72;;;31.00;40.06
4705;BME280;2366;51.332;6.610;2023-07-29T12:53:53;100556.00;;;30.68;40.88
4705;BME280;2366;51.332;6.610;2023-07-29T12:56:19;100561.25;;;30.88;40.58
4705;BME280;2366;51.332;6.610;2023-07-29T12:58:44;100561.75;;;30.79;40.93
4705;BME280;2366;51.332;6.610;2023-07-29T13:01:09;100562.09;;;30.52;41.11
4705;BME280;2366;51.332;6.610;2023-07-29T13:03:38;100567.41;;;30.47;40.55
4705;BME280;2366;51.332;6.610;2023-07-29T13:06:04;100569.25;;;30.35;41.40
4705;BME280;2366;51.332;6.610;2023-07-29T13:08:30;100564.97;;;30.20;41.31
4705;BME280;2366;51.332;6.610;2023-07-29T13:10:56;100573.31;;;29.88;42.22
4705;BME280;2366;51.332;6.610;2023-07-29T13:13:21;100578.75;;;29.88;42.24